sensor_id;sensor_type;location;lat;lon;timestamp;pressure;altitude;pressure_sealevel;temperature;humidity
62152;BME280;48139;47.474;19.034;2022-07-29T03:44:54;100311.31;;;24.09;48.03
62152;BME280;48139;47.474;19.034;2022-07-29T03:48:07;100311.31;;;24.09;48.03
62152;BME280;48139;47.474;19.034;2022-07-29T03:51:10;100315.84;;;23.83;48.08
62152;BME280;48139;47.474;19.034;2022-07-29T03:54:13;100315.69;;;23.85;48.12
62152;BME280;48139;47.474;19.034;2022-07-29T03:57:18;100317.03;;;23.89;47.90
62152;BME280;48139;47.474;19.034;2022-07-29T04:00:25;100317.56;;;23.92;47.83
62152;BME280;48139;47.474;19.034;2022-07-29T04:03:28;100323.28;;;23.97;47.70
62152;BME280;48139;47.474;19.034;2022-07-29T04:06:39;100336.31;;;24.00;47.73
62152;BME280;48139;47.474;19.034;2022-07-29T04:09:43;100327.81;;;24.05;47.65
62152;BME280;48139;47.474;19.034;2022-07-29T04:12:45;100337.53;;;24.06;47.90
62152;BME280;48139;47.474;19.034;2022-07-29T04:15:48;100324.69;;;24.09;48.05
62152;BME280;48139;47.474;19.034;2022-07-29T04:18:51;100328.09;;;24.20;47.89
62152;BME280;48139;47.474;19.034;2022-07-29T04:21:54;100339.00;;;24.26;47.81
62152;BME280;48139;47.474;19.034;2022-07-29T04:24:56;100334.53;;;24.35;48.10
62152;BME280;48139;47.474;19.034;2022-07-29T04:28:06;100333.34;;;24.37;48.34
62152;BME280;48139;47.474;19.034;2022-07-29T04:31:10;100325.66;;;24.34;48.77
62152;BME280;48139;47.474;19.034;2022-07-29T04:34:13;100332.22;;;24.40;49.03
62152;BME280;48139;47.474;19.034;2022-07-29T04:37:15;100324.69;;;24.43;49.00
62152;BME280;48139;47.474;19.034;2022-07-29T04:40:19;100330.03;;;24.43;48.96
62152;BME280;48139;47.474;19.034;2022-07-29T04:43:21;100326.50;;;24.43;48.20
62152;BME280;48139;47.474;19.034;2022-07-29T04:46:24;100328.84;;;24.38;47.85
62152;BME280;48139;47.474;19.034;2022-07-29T04:49:27;100329.72;;;24.46;47.73
62152;BME280;48139;47.474;19.034;2022-07-29T04:52:30;100333.75;;;24.50;47.74
62152;BME280;48139;47.474;19.034;2022-07-29T04:55:32;100327.34;;;24.43;47.82
62152;BME280;48139;47.474;19.034;2022-07-29T04:58:36;100334.09;;;24.47;47.97
62152;BME280;48139;47.474;19.034;2022-07-29T05:01:38;100338.25;;;24.50;47.83
62152;BME280;48139;47.474;19.034;2022-07-29T05:04:44;100334.63;;;24.59;47.85
62152;BME280;48139;47.474;19.034;2022-07-29T05:07:47;100330.94;;;24.68;47.79
62152;BME280;48139;47.474;19.034;2022-07-29T05:10:49;100340.03;;;24.83;47.55
62152;BME280;48139;47.474;19.034;2022-07-29T05:13:52;100335.22;;;24.95;47.45
62152;BME280;48139;47.474;19.034;2022-07-29T05:16:55;100338.09;;;25.02;47.40
62152;BME280;48139;47.474;19.034;2022-07-29T05:19:59;100345.81;;;25.05;47.45
62152;BME280;48139;47.474;19.034;2022-07-29T05:23:02;100342.28;;;25.12;47.34
62152;BME280;48139;47.474;19.034;2022-07-29T05:26:05;100338.78;;;25.20;47.31
62152;BME280;48139;47.474;19.034;2022-07-29T05:29:08;100345.50;;;25.32;46.99
62152;BME280;48139;47.474;19.034;2022-07-29T05:32:30;100332.75;;;25.50;46.73
62152;BME280;48139;47.474;19.034;2022-07-29T05:35:34;100337.12;;;25.59;46.37
62152;BME280;48139;47.474;19.034;2022-07-29T05:38:37;100335.63;;;25.73;46.18
62152;BME280;48139;47.474;19.034;2022-07-29T05:41:39;100333.09;;;25.72;45.61
62152;BME280;48139;47.474;19.034;2022-07-29T05:44:43;100344.16;;;25.77;45.54
62152;BME280;48139;47.474;19.034;2022-07-29T05:47:45;100345.84;;;25.78;45.21
62152;BME280;48139;47.474;19.034;2022-07-29T05:50:48;100344.47;;;25.90;44.84
62152;BME280;48139;47.474;19.034;2022-07-29T05:53:51;100346.09;;;25.99;44.66
62152;BME280;48139;47.474;19.034;2022-07-29T05:56:53;100347.44;;;26.11;44.61
62152;BME280;48139;47.474;19.034;2022-07-29T05:59:56;100350.25;;;26.34;43.94
62152;BME280;48139;47.474;19.034;2022-07-29T06:02:58;100348.69;;;26.47;43.74
62152;BME280;48139;47.474;19.034;2022-07-29T06:06:01;100353.69;;;26.50;43.35
62152;BME280;48139;47.474;19.034;2022-07-29T06:09:03;100356.22;;;26.52;43.05
62152;BME280;48139;47.474;19.034;2022-07-29T06:12:14;100351.16;;;26.49;42.88
62152;BME280;48139;47.474;19.034;2022-07-29T06:15:17;100360.56;;;26.53;43.04
62152;BME280;48139;47.474;19.034;2022-07-29T06:18:19;100355.34;;;26.60;42.83
62152;BME280;48139;47.474;19.034;2022-07-29T06:21:26;100356.31;;;26.67;42.88
62152;BME280;48139;47.474;19.034;2022-07-29T06:24:29;100355.78;;;26.71;41.95
62152;BME280;48139;47.474;19.034;2022-07-29T06:27:31;100357.22;;;26.82;42.12
62152;BME280;48139;47.474;19.034;2022-07-29T06:30:33;100362.34;;;27.00;42.22
62152;BME280;48139;47.474;19.034;2022-07-29T06:33:36;100358.59;;;27.09;41.39
62152;BME280;48139;47.474;19.034;2022-07-29T06:36:39;100356.16;;;27.22;40.43
62152;BME280;48139;47.474;19.034;2022-07-29T06:39:42;100372.16;;;27.38;40.57
62152;BME280;48139;47.474;19.034;2022-07-29T06:42:45;100371.16;;;27.39;40.30
62152;BME280;48139;47.474;19.034;2022-07-29T06:45:47;100369.75;;;27.51;39.95
62152;BME280;48139;47.474;19.034;2022-07-29T06:48:50;100368.66;;;27.60;39.62
62152;BME280;48139;47.474;19.034;2022-07-29T06:51:54;100376.13;;;27.73;39.10
62152;BME280;48139;47.474;19.034;2022-07-29T06:54:57;100376.22;;;27.94;38.79
62152;BME280;48139;47.474;19.034;2022-07-29T06:58:00;100377.72;;;28.12;38.55
62152;BME280;48139;47.474;19.034;2022-07-29T07:01:04;100365.97;;;28.27;38.48
62152;BME280;48139;47.474;19.034;2022-07-29T07:04:08;100366.59;;;28.44;37.88
62152;BME280;48139;47.474;19.034;2022-07-29T07:07:11;100361.91;;;28.67;37.69
62152;BME280;48139;47.474;19.034;2022-07-29T07:10:13;100361.63;;;28.92;37.17
62152;BME280;48139;47.474;19.034;2022-07-29T07:13:17;100365.63;;;28.96;37.16
62152;BME280;48139;47.474;19.034;2022-07-29T07:16:19;100371.06;;;29.23;36.28
62152;BME280;48139;47.474;19.034;2022-07-29T07:19:22;100363.50;;;29.55;35.77
62152;BME280;48139;47.474;19.034;2022-07-29T07:22:25;100357.09;;;29.84;35.32
62152;BME280;48139;47.474;19.034;2022-07-29T07:25:27;100359.94;;;29.97;34.81
62152;BME280;48139;47.474;19.034;2022-07-29T07:28:30;100360.34;;;30.00;34.67
62152;BME280;48139;47.474;19.034;2022-07-29T07:31:33;100357.88;;;29.78;35.37
62152;BME280;48139;47.474;19.034;2022-07-29T07:34:35;100355.56;;;29.75;35.33
62152;BME280;48139;47.474;19.034;2022-07-29T07:37:40;100358.13;;;29.83;34.97
62152;BME280;48139;47.474;19.034;2022-07-29T07:40:43;100359.22;;;29.88;34.69
62152;BME280;48139;47.474;19.034;2022-07-29T07:43:45;100354.00;;;29.87;34.98
62152;BME280;48139;47.474;19.034;2022-07-29T07:46:47;100354.22;;;29.85;35.33
62152;BME280;48139;47.474;19.034;2022-07-29T07:49:50;100355.41;;;30.04;35.00
62152;BME280;48139;47.474;19.034;2022-07-29T07:52:54;100356.81;;;30.34;34.50
62152;BME280;48139;47.474;19.034;2022-07-29T07:55:59;100360.69;;;30.53;34.33
62152;BME280;48139;47.474;19.034;2022-07-29T07:59:12;100353.47;;;30.67;34.11
62152;BME280;48139;47.474;19.034;2022-07-29T08:02:15;100351.59;;;30.74;33.73
62152;BME280;48139;47.474;19.034;2022-07-29T08:05:18;100352.00;;;30.71;33.95
62152;BME280;48139;47.474;19.034;2022-07-29T08:08:21;100347.25;;;30.73;33.74
62152;BME280;48139;47.474;19.034;2022-07-29T08:11:23;100347.66;;;30.76;33.97
62152;BME280;48139;47.474;19.034;2022-07-29T08:14:26;100344.34;;;30.81;33.90
62152;BME280;48139;47.474;19.034;2022-07-29T08:17:28;100344.97;;;30.83;33.56
62152;BME280;48139;47.474;19.034;2022-07-29T08:20:37;100356.88;;;31.02;33.33
62152;BME280;48139;47.474;19.034;2022-07-29T08:23:43;100350.91;;;31.13;33.28
62152;BME280;48139;47.474;19.034;2022-07-29T08:26:59;100343.00;;;31.31;32.89
62152;BME280;48139;47.474;19.034;2022-07-29T08:30:03;100345.72;;;31.31;32.83
62152;BME280;48139;47.474;19.034;2022-07-29T08:33:05;100334.69;;;31.39;33.03
62152;BME280;48139;47.474;19.034;2022-07-29T08:36:08;100342.81;;;31.52;32.76
62152;BME280;48139;47.474;19.034;2022-07-29T08:39:11;100345.75;;;31.64;32.55
62152;BME280;48139;47.474;19.034;2022-07-29T08:42:14;100340.53;;;31.89;32.12
62152;BME280;48139;47.474;19.034;2022-07-29T08:45:20;100344.66;;;32.04;31.75
62152;BME280;48139;47.474;19.034;2022-07-29T08:48:23;100332.34;;;32.22;31.22
62152;BME280;48139;47.474;19.034;2022-07-29T08:51:26;100338.37;;;32.24;31.20
62152;BME280;48139;47.474;19.034;2022-07-29T08:54:30;100338.78;;;32.27;31.10
62152;BME280;48139;47.474;19.034;2022-07-29T08:57:34;100325.22;;;32.34;31.28
62152;BME280;48139;47.474;19.034;2022-07-29T09:00:43;100329.59;;;32.35;31.06
62152;BME280;48139;47.474;19.034;2022-07-29T09:03:46;100330.09;;;32.70;30.63
62152;BME280;48139;47.474;19.034;2022-07-29T09:06:51;100322.00;;;32.95;29.92
62152;BME280;48139;47.474;19.034;2022-07-29T09:09:54;100326.19;;;33.29;29.12
62152;BME280;48139;47.474;19.034;2022-07-29T09:12:57;100320.47;;;33.37;29.27
62152;BME280;48139;47.474;19.034;2022-07-29T09:16:00;100321.25;;;33.12;29.30
62152;BME280;48139;47.474;19.034;2022-07-29T09:22:29;100309.91;;;33.96;28.29
62152;BME280;48139;47.474;19.034;2022-07-29T09:25:36;100314.44;;;34.03;28.13
62152;BME280;48139;47.474;19.034;2022-07-29T09:28:41;100316.94;;;34.04;28.28
62152;BME280;48139;47.474;19.034;2022-07-29T09:31:48;100312.66;;;34.33;27.77
62152;BME280;48139;47.474;19.034;2022-07-29T09:35:21;100313.94;;;34.30;27.50
62152;BME280;48139;47.474;19.034;2022-07-29T09:38:23;100311.94;;;34.19;27.13
62152;BME280;48139;47.474;19.034;2022-07-29T09:41:29;100293.53;;;34.03;25.87
62152;BME280;48139;47.474;19.034;2022-07-29T09:44:42;100292.91;;;34.01;26.11
62152;BME280;48139;47.474;19.034;2022-07-29T09:47:47;100300.03;;;34.02;26.29
62152;BME280;48139;47.474;19.034;2022-07-29T09:50:51;100292.09;;;34.00;26.43
62152;BME280;48139;47.474;19.034;2022-07-29T09:53:54;100292.22;;;34.06;25.33
62152;BME280;48139;47.474;19.034;2022-07-29T09:56:57;100283.25;;;34.23;25.80
62152;BME280;48139;47.474;19.034;2022-07-29T10:00:03;100293.06;;;34.24;25.38
62152;BME280;48139;47.474;19.034;2022-07-29T10:03:14;100282.81;;;34.56;25.68
62152;BME280;48139;47.474;19.034;2022-07-29T10:06:18;100279.72;;;34.71;24.96
62152;BME280;48139;47.474;19.034;2022-07-29T10:09:20;100283.88;;;34.55;24.52
62152;BME280;48139;47.474;19.034;2022-07-29T10:12:24;100278.19;;;34.45;24.69
62152;BME280;48139;47.474;19.034;2022-07-29T10:15:28;100272.47;;;34.65;24.58
62152;BME280;48139;47.474;19.034;2022-07-29T10:18:32;100274.53;;;34.81;24.20
62152;BME280;48139;47.474;19.034;2022-07-29T10:21:35;100274.78;;;34.79;23.82
62152;BME280;48139;47.474;19.034;2022-07-29T10:24:40;100271.81;;;34.81;24.03
62152;BME280;48139;47.474;19.034;2022-07-29T10:27:46;100269.50;;;34.96;23.64
62152;BME280;48139;47.474;19.034;2022-07-29T10:30:51;100259.34;;;35.03;23.62
62152;BME280;48139;47.474;19.034;2022-07-29T10:34:15;100257.66;;;34.91;23.71
62152;BME280;48139;47.474;19.034;2022-07-29T10:38:10;100256.94;;;34.54;24.06
62152;BME280;48139;47.474;19.034;2022-07-29T10:44:41;100243.87;;;35.27;22.64
62152;BME280;48139;47.474;19.034;2022-07-29T10:47:45;100246.97;;;35.66;22.61
62152;BME280;48139;47.474;19.034;2022-07-29T10:51:03;100248.13;;;35.81;23.04
62152;BME280;48139;47.474;19.034;2022-07-29T10:54:08;100250.75;;;35.53;23.15
62152;BME280;48139;47.474;19.034;2022-07-29T10:57:27;100246.84;;;35.49;23.29
62152;BME280;48139;47.474;19.034;2022-07-29T11:00:52;100237.84;;;35.60;22.99
62152;BME280;48139;47.474;19.034;2022-07-29T11:03:55;100236.03;;;35.89;22.92
62152;BME280;48139;47.474;19.034;2022-07-29T11:13:53;100227.97;;;35.94;22.62
62152;BME280;48139;47.474;19.034;2022-07-29T11:17:03;100215.19;;;36.34;22.66
62152;BME280;48139;47.474;19.034;2022-07-29T11:23:39;100214.81;;;36.59;20.77
62152;BME280;48139;47.474;19.034;2022-07-29T11:27:13;100209.81;;;35.99;22.56
62152;BME280;48139;47.474;19.034;2022-07-29T11:30:20;100212.19;;;35.96;22.67
62152;BME280;48139;47.474;19.034;2022-07-29T11:33:28;100204.66;;;36.15;22.45
62152;BME280;48139;47.474;19.034;2022-07-29T11:40:12;100193.16;;;36.13;21.88
62152;BME280;48139;47.474;19.034;2022-07-29T11:47:20;100178.19;;;36.27;21.27
62152;BME280;48139;47.474;19.034;2022-07-29T11:50:33;100178.16;;;36.55;21.26
62152;BME280;48139;47.474;19.034;2022-07-29T11:53:39;100183.22;;;36.63;21.70
62152;BME280;48139;47.474;19.034;2022-07-29T11:56:42;100179.19;;;36.66;20.91
62152;BME280;48139;47.474;19.034;2022-07-29T11:59:48;100179.81;;;36.56;21.04
62152;BME280;48139;47.474;19.034;2022-07-29T12:02:52;100179.19;;;36.66;20.90
62152;BME280;48139;47.474;19.034;2022-07-29T12:05:55;100177.16;;;36.73;20.84
62152;BME280;48139;47.474;19.034;2022-07-29T12:08:58;100175.41;;;36.84;20.97
62152;BME280;48139;47.474;19.034;2022-07-29T12:12:01;100181.53;;;36.46;20.70
62152;BME280;48139;47.474;19.034;2022-07-29T12:15:17;100170.09;;;36.04;21.53
62152;BME280;48139;47.474;19.034;2022-07-29T12:18:24;100165.09;;;35.61;21.50
62152;BME280;48139;47.474;19.034;2022-07-29T12:21:26;100167.47;;;35.45;21.80
62152;BME280;48139;47.474;19.034;2022-07-29T12:24:43;100160.13;;;35.46;22.31
62152;BME280;48139;47.474;19.034;2022-07-29T12:27:46;100154.00;;;35.90;21.94
62152;BME280;48139;47.474;19.034;2022-07-29T12:30:50;100158.78;;;35.83;21.64
62152;BME280;48139;47.474;19.034;2022-07-29T12:33:53;100139.59;;;35.78;21.70
62152;BME280;48139;47.474;19.034;2022-07-29T12:36:58;100147.50;;;35.68;21.36
62152;BME280;48139;47.474;19.034;2022-07-29T12:40:04;100140.78;;;35.59;21.78
62152;BME280;48139;47.474;19.034;2022-07-29T12:43:16;100139.84;;;35.65;21.48
62152;BME280;48139;47.474;19.034;2022-07-29T12:46:19;100132.53;;;35.94;21.11
62152;BME280;48139;47.474;19.034;2022-07-29T12:49:22;100122.34;;;36.18;20.40
62152;BME280;48139;47.474;19.034;2022-07-29T12:52:32;100119.84;;;36.28;20.44
62152;BME280;48139;47.474;19.034;2022-07-29T12:55:44;100113.12;;;36.07;21.42
62152;BME280;48139;47.474;19.034;2022-07-29T12:58:50;100106.19;;;35.71;22.26
62152;BME280;48139;47.474;19.034;2022-07-29T13:01:54;100112.84;;;35.92;22.01
62152;BME280;48139;47.474;19.034;2022-07-29T13:04:58;100113.12;;;36.07;21.73
62152;BME280;48139;47.474;19.034;2022-07-29T13:08:16;100112.47;;;36.00;21.59
62152;BME280;48139;47.474;19.034;2022-07-29T13:11:38;100100.56;;;36.06;21.34
62152;BME280;48139;47.474;19.034;2022-07-29T13:14:49;100105.00;;;36.24;21.40
62152;BME280;48139;47.474;19.034;2022-07-29T13:17:52;100094.37;;;36.22;21.31
62152;BME280;48139;47.474;19.034;2022-07-29T13:20:56;100088.41;;;36.25;21.29
62152;BME280;48139;47.474;19.034;2022-07-29T13:23:58;100083.47;;;36.11;21.33
62152;BME280;48139;47.474;19.034;2022-07-29T13:27:01;100075.59;;;36.26;21.01
62152;BME280;48139;47.474;19.034;2022-07-29T13:30:09;100086.25;;;36.44;21.12
62152;BME280;48139;47.474;19.034;2022-07-29T13:33:12;100082.84;;;36.65;21.24
62152;BME280;48139;47.474;19.034;2022-07-29T13:36:16;100083.16;;;36.69;20.75
